This is the latest recevied weather packets stored in our database for station/object KB4KY. If no packets are shown the sender has not sent any weather packets the latest 10 day(s).
| Time | Temp. | Humidity | Pressure | Rain* | Wind** | Luminosity | Snow |
|---|---|---|---|---|---|---|---|
| 1777499062 | 20° C | 58% | 1010.5 hPa | 0 mm | - | - | - |
| 1777498761 | 20° C | 62% | 1010.5 hPa | 0 mm | - | - | - |
| 1777498161 | 20° C | 60% | 1010.3 hPa | 0 mm | - | - | - |
| 1777497863 | 20° C | 61% | 1010.4 hPa | 0 mm | - | - | - |
| 1777497560 | 19.44° C | 62% | 1010.4 hPa | 0 mm | - | - | - |
| 1777497262 | 19.44° C | 61% | 1010.4 hPa | 0 mm | - | - | - |
| 1777496960 | 18.89° C | 66% | 1010.4 hPa | 0 mm | - | - | - |
| 1777496659 | 18.89° C | 68% | 1010.5 hPa | 0 mm | - | - | - |
| 1777496361 | 18.89° C | 68% | 1010.5 hPa | 0 mm | - | - | - |
| 1777496059 | 19.44° C | 66% | 1010.5 hPa | 0 mm | - | - | - |
| 1777495797 | 19.44° C | 67% | 1010.5 hPa | 0 mm | - | - | - |
| 1777495763 | 19.44° C | 67% | 1010.5 hPa | 0 mm | - | - | - |
| 1777495494 | 19.44° C | 67% | 1010.5 hPa | 0 mm | - | - | - |
| 1777495458 | 19.44° C | 67% | 1010.5 hPa | 0 mm | - | - | - |
| 1777495158 | 20° C | 66% | 1010.5 hPa | 0 mm | - | - | - |
| 1777494897 | 20° C | 67% | 1010.5 hPa | 0 mm | - | - | - |
| 1777494858 | 20° C | 67% | 1010.5 hPa | 0 mm | - | - | - |
| 1777494597 | 20° C | 65% | 1010.5 hPa | 0 mm | - | - | - |
| 1777494562 | 20° C | 65% | 1010.5 hPa | 0 mm | - | - | - |
| 1777494257 | 20° C | 67% | 1010.5 hPa | 0 mm | - | - | - |
| 1777493957 | 19.44° C | 69% | 1010.6 hPa | 0 mm | - | - | - |
| 1777493667 | 18.89° C | 71% | 1010.7 hPa | 0 mm | - | - | - |
| 1777493356 | 18.89° C | 73% | 1010.8 hPa | 0 mm | - | - | - |
| 1777493056 | 18.33° C | 75% | 1010.8 hPa | 0 mm | - | - | - |
| 1777492756 | 18.89° C | 71% | 1010.8 hPa | 0 mm | - | - | - |
* Rain latest hour (hover to see other rain measurements)
** Current wind speed in m/s (hover to see current wind gust speed)